createdAt,value
2022-10-08T00:02:12.490Z,3.65
2022-10-08T00:04:45.549Z,3.00
2022-10-08T00:07:18.941Z,3.60
2022-10-08T00:09:50.884Z,3.72
2022-10-08T00:12:22.823Z,3.40
2022-10-08T00:14:54.743Z,3.45
2022-10-08T00:17:27.144Z,2.75
2022-10-08T00:19:59.051Z,2.83
2022-10-08T00:22:32.386Z,3.22
2022-10-08T00:25:04.718Z,3.00
2022-10-08T00:27:36.836Z,3.00
2022-10-08T00:30:09.749Z,2.92
2022-10-08T00:32:41.735Z,3.38
2022-10-08T00:35:13.688Z,3.20
2022-10-08T00:37:47.061Z,2.35
2022-10-08T00:40:18.988Z,3.60
2022-10-08T00:42:51.530Z,3.20
2022-10-08T00:45:23.711Z,2.78
2022-10-08T00:47:57.938Z,3.45
2022-10-08T00:50:33.098Z,3.97
2022-10-08T00:53:08.353Z,3.22
2022-10-08T00:55:43.881Z,3.00
2022-10-08T00:58:20.220Z,3.95
2022-10-08T01:00:52.323Z,3.58
2022-10-08T01:03:24.667Z,3.53
2022-10-08T01:06:06.197Z,3.28
2022-10-08T01:08:47.966Z,3.38
2022-10-08T01:11:29.864Z,3.63
2022-10-08T01:14:08.523Z,3.10
2022-10-08T01:16:49.516Z,3.35
2022-10-08T01:19:58.415Z,2.97
2022-10-08T01:22:49.002Z,3.40
2022-10-08T01:25:34.920Z,2.95
2022-10-08T01:28:14.778Z,3.85
2022-10-08T01:30:51.431Z,3.75
2022-10-08T01:33:29.543Z,3.45
2022-10-08T01:36:05.243Z,3.45
2022-10-08T01:38:42.970Z,3.25
2022-10-08T01:41:17.090Z,4.20
2022-10-08T01:44:02.613Z,4.03
2022-10-08T01:46:38.494Z,4.85
2022-10-08T01:49:14.512Z,4.22
2022-10-08T01:51:52.842Z,2.92
2022-10-08T01:54:28.823Z,3.42
2022-10-08T01:57:05.991Z,4.00
2022-10-08T01:59:43.618Z,3.70
2022-10-08T02:02:20.322Z,3.85
2022-10-08T02:04:55.633Z,3.72
2022-10-08T02:07:31.933Z,3.38
2022-10-08T02:10:07.250Z,3.75
2022-10-08T02:12:40.306Z,3.70
2022-10-08T02:15:16.489Z,4.68
2022-10-08T02:17:57.736Z,3.55
2022-10-08T02:20:35.165Z,4.25
2022-10-08T02:23:13.567Z,4.13
2022-10-08T02:25:51.362Z,3.65
2022-10-08T02:28:31.854Z,4.72
2022-10-08T02:31:10.328Z,4.03
2022-10-08T02:33:48.017Z,4.70
2022-10-08T02:36:32.250Z,5.10
2022-10-08T02:39:05.753Z,5.00
2022-10-08T02:41:41.069Z,4.07
2022-10-08T02:44:18.797Z,4.70
2022-10-08T02:46:57.923Z,5.18
2022-10-08T02:49:35.167Z,4.88
2022-10-08T02:52:09.360Z,4.93
2022-10-08T02:54:43.786Z,4.13
2022-10-08T02:57:18.721Z,4.40
2022-10-08T02:59:51.224Z,4.85
2022-10-08T03:02:30.485Z,4.55
2022-10-08T03:05:05.857Z,5.18
2022-10-08T03:07:37.922Z,4.60
2022-10-08T03:10:11.917Z,5.10
2022-10-08T03:12:43.983Z,4.95
2022-10-08T03:15:16.138Z,5.60
2022-10-08T03:17:49.504Z,5.13
2022-10-08T03:20:21.747Z,5.97
2022-10-08T03:22:55.275Z,5.32
2022-10-08T03:25:27.282Z,5.93
2022-10-08T03:27:59.349Z,5.68
2022-10-08T03:30:31.423Z,6.03
2022-10-08T03:33:04.782Z,6.80
2022-10-08T03:35:36.719Z,5.80
2022-10-08T03:38:09.540Z,5.70
2022-10-08T03:40:41.599Z,4.90
2022-10-08T03:43:13.556Z,5.78
2022-10-08T03:45:50.333Z,6.03
2022-10-08T03:48:24.116Z,5.90
2022-10-08T03:50:57.759Z,5.80
2022-10-08T03:53:32.792Z,5.50
2022-10-08T03:56:07.284Z,6.13
2022-10-08T03:58:39.230Z,5.78
2022-10-08T04:01:13.483Z,6.60
2022-10-08T04:03:46.805Z,6.97
2022-10-08T04:06:18.963Z,6.85
2022-10-08T04:08:51.104Z,6.65
2022-10-08T04:11:23.064Z,6.68
2022-10-08T04:13:55.276Z,6.20
2022-10-08T04:16:27.301Z,6.43
2022-10-08T04:19:00.695Z,7.10
2022-10-08T04:21:32.675Z,6.70
2022-10-08T04:24:05.113Z,7.47
2022-10-08T04:26:37.081Z,6.97
2022-10-08T04:29:09.188Z,6.60
2022-10-08T04:31:41.177Z,7.38
2022-10-08T04:34:14.518Z,8.30
2022-10-08T04:36:46.493Z,7.15
2022-10-08T04:39:18.460Z,6.68
2022-10-08T04:41:50.588Z,6.72
2022-10-08T04:44:22.835Z,6.55
2022-10-08T04:46:55.332Z,7.13
2022-10-08T04:49:29.794Z,7.75
2022-10-08T04:52:01.969Z,9.13
2022-10-08T04:54:34.058Z,8.18
2022-10-08T04:57:06.044Z,6.55
2022-10-08T04:59:53.758Z,9.02
2022-10-08T05:02:30.318Z,7.85
2022-10-08T05:05:04.084Z,7.47
2022-10-08T05:07:36.130Z,7.82
2022-10-08T05:10:08.760Z,9.70
2022-10-08T05:12:40.846Z,8.18
2022-10-08T05:15:12.814Z,7.95
2022-10-08T05:17:44.796Z,7.60
2022-10-08T05:20:18.238Z,7.45
2022-10-08T05:22:50.353Z,9.93
2022-10-08T05:25:22.425Z,7.80
2022-10-08T05:27:54.400Z,7.15
2022-10-08T05:30:26.413Z,8.77
2022-10-08T05:32:58.417Z,6.88
2022-10-08T05:35:31.768Z,8.75
2022-10-08T05:38:03.692Z,8.38
2022-10-08T05:40:35.589Z,6.97
2022-10-08T05:43:07.535Z,7.57
2022-10-08T05:45:39.450Z,7.60
2022-10-08T05:48:11.410Z,8.73
2022-10-08T05:50:44.826Z,8.20
2022-10-08T05:53:16.774Z,7.10
2022-10-08T05:55:48.706Z,7.20
2022-10-08T05:58:20.682Z,7.07
2022-10-08T06:00:57.141Z,7.45
2022-10-08T06:03:29.323Z,7.40
2022-10-08T06:06:05.099Z,7.70
2022-10-08T06:08:37.849Z,7.10
2022-10-08T06:11:09.883Z,7.22
2022-10-08T06:13:41.880Z,6.60
2022-10-08T06:16:13.882Z,6.18
2022-10-08T06:18:45.946Z,6.70
2022-10-08T06:21:22.115Z,7.45
2022-10-08T06:23:56.205Z,6.50
2022-10-08T06:26:35.119Z,6.47
2022-10-08T06:29:10.969Z,6.45
2022-10-08T06:31:43.796Z,6.18
2022-10-08T06:34:15.829Z,6.50
2022-10-08T06:36:49.154Z,6.28
2022-10-08T06:39:21.169Z,5.90
2022-10-08T06:41:53.286Z,6.70
2022-10-08T06:44:25.840Z,6.30
2022-10-08T06:46:57.890Z,5.22
2022-10-08T06:49:30.050Z,5.88
2022-10-08T06:52:03.343Z,5.40
2022-10-08T06:54:35.308Z,5.30
2022-10-08T06:57:07.250Z,5.38
2022-10-08T06:59:39.220Z,5.93
2022-10-08T07:02:11.483Z,5.70
2022-10-08T07:04:43.460Z,5.78
2022-10-08T07:07:16.755Z,5.28
2022-10-08T07:09:48.691Z,5.65
2022-10-08T07:12:20.644Z,5.55
2022-10-08T07:14:52.667Z,4.82
2022-10-08T07:17:26.318Z,5.38
2022-10-08T07:19:58.487Z,5.07
2022-10-08T07:22:31.826Z,5.90
2022-10-08T07:25:04.184Z,5.57
2022-10-08T07:27:36.133Z,5.38
2022-10-08T07:30:08.893Z,5.40
2022-10-08T07:32:40.801Z,4.47
2022-10-08T07:35:12.763Z,5.75
2022-10-08T07:37:46.077Z,5.35
2022-10-08T07:40:18.028Z,5.30
2022-10-08T07:42:50.225Z,5.15
2022-10-08T07:45:22.272Z,5.28
2022-10-08T07:47:54.418Z,4.95
2022-10-08T07:50:26.310Z,4.97
2022-10-08T07:52:59.554Z,5.35
2022-10-08T07:55:31.546Z,5.18
2022-10-08T07:58:03.941Z,4.82
2022-10-08T08:00:38.616Z,5.18
2022-10-08T08:03:13.718Z,5.13
2022-10-08T08:05:45.703Z,5.43
2022-10-08T08:08:19.165Z,5.13
2022-10-08T08:10:57.179Z,4.85
2022-10-08T08:13:34.329Z,4.45
2022-10-08T08:16:11.040Z,4.90
2022-10-08T08:18:44.787Z,4.15
2022-10-08T08:21:18.668Z,4.60
2022-10-08T08:23:54.101Z,4.90
2022-10-08T08:26:28.961Z,5.22
2022-10-08T08:29:03.182Z,4.30
2022-10-08T08:31:37.132Z,4.40
2022-10-08T08:34:11.303Z,4.43
2022-10-08T08:36:45.523Z,4.72
2022-10-08T08:39:21.403Z,4.43
2022-10-08T08:42:20.447Z,4.32
2022-10-08T08:44:58.414Z,3.65
2022-10-08T08:47:36.099Z,4.07
2022-10-08T08:50:19.526Z,3.90
2022-10-08T08:52:51.909Z,4.35
2022-10-08T08:55:34.290Z,5.50
2022-10-08T08:58:18.440Z,4.68
2022-10-08T09:00:56.805Z,4.03
2022-10-08T09:03:34.775Z,4.03
2022-10-08T09:06:13.144Z,4.47
2022-10-08T09:08:49.995Z,3.63
2022-10-08T09:11:24.366Z,3.67
2022-10-08T09:14:01.255Z,3.90
2022-10-08T09:16:35.361Z,3.17
2022-10-08T09:19:07.404Z,3.50
2022-10-08T09:21:39.488Z,3.13
2022-10-08T09:24:11.971Z,3.25
2022-10-08T09:26:45.334Z,3.40
2022-10-08T09:29:32.493Z,2.85
2022-10-08T09:32:04.542Z,2.90
2022-10-08T09:34:37.018Z,3.38
2022-10-08T09:37:19.897Z,3.90
2022-10-08T09:40:18.020Z,3.20
2022-10-08T09:43:12.555Z,3.08
2022-10-08T09:45:45.963Z,3.50
2022-10-08T09:48:21.206Z,2.95
2022-10-08T09:51:02.604Z,3.45
2022-10-08T09:53:41.226Z,2.83
2022-10-08T09:56:14.975Z,2.55
2022-10-08T09:58:54.073Z,3.13
2022-10-08T10:01:26.919Z,3.53
2022-10-08T10:04:01.194Z,3.28
2022-10-08T10:06:35.237Z,3.00
2022-10-08T10:09:23.887Z,3.30
2022-10-08T10:12:00.560Z,3.45
2022-10-08T10:14:43.268Z,2.97
2022-10-08T10:17:22.229Z,3.50
2022-10-08T10:19:59.291Z,2.78
2022-10-08T10:22:38.453Z,3.08
2022-10-08T10:25:18.107Z,2.78
2022-10-08T10:27:53.704Z,2.92
2022-10-08T10:30:28.829Z,3.30
2022-10-08T10:33:07.386Z,3.10
2022-10-08T10:35:46.866Z,4.40
2022-10-08T10:38:24.108Z,3.13
2022-10-08T10:41:13.936Z,3.03
2022-10-08T10:43:49.412Z,3.13
2022-10-08T10:46:34.340Z,3.17
2022-10-08T10:49:14.883Z,3.25
2022-10-08T10:52:03.543Z,2.70
2022-10-08T10:54:53.788Z,2.70
2022-10-08T10:57:40.453Z,3.45
2022-10-08T11:00:20.249Z,2.92
2022-10-08T11:02:59.548Z,3.20
2022-10-08T11:05:34.333Z,3.08
2022-10-08T11:08:17.910Z,2.80
2022-10-08T11:11:02.974Z,2.28
2022-10-08T11:13:52.229Z,2.90
2022-10-08T11:16:36.374Z,3.05
2022-10-08T11:19:22.728Z,2.83
2022-10-08T11:22:03.361Z,2.75
2022-10-08T11:24:50.381Z,2.67
2022-10-08T11:27:33.277Z,2.75
2022-10-08T11:30:14.028Z,3.22
2022-10-08T11:32:52.600Z,2.58
2022-10-08T11:35:32.205Z,2.60
2022-10-08T11:38:12.055Z,2.75
2022-10-08T11:40:51.566Z,2.70
2022-10-08T11:43:30.062Z,2.40
2022-10-08T11:46:23.072Z,2.47
2022-10-08T11:48:57.014Z,2.05
2022-10-08T11:51:37.730Z,2.78
2022-10-08T11:54:14.451Z,2.60
2022-10-08T11:56:48.740Z,2.47
2022-10-08T11:59:37.397Z,2.33
2022-10-08T12:02:24.262Z,3.40
2022-10-08T12:04:58.954Z,2.80
2022-10-08T12:07:36.445Z,3.53
2022-10-08T12:10:29.817Z,4.35
2022-10-08T12:13:27.771Z,2.80
2022-10-08T12:16:04.923Z,2.03
2022-10-08T12:18:46.064Z,2.30
2022-10-08T12:21:54.541Z,2.55
2022-10-08T12:24:53.383Z,2.40
2022-10-08T12:27:33.301Z,2.50
2022-10-08T12:30:08.527Z,2.28
2022-10-08T12:32:56.145Z,2.45
2022-10-08T12:35:31.204Z,2.47
2022-10-08T12:38:22.618Z,2.70
2022-10-08T12:41:10.402Z,2.38
2022-10-08T12:43:50.397Z,2.50
2022-10-08T12:46:34.694Z,3.20
2022-10-08T12:49:18.686Z,2.17
2022-10-08T12:52:01.182Z,2.25
2022-10-08T12:54:34.538Z,2.50
2022-10-08T12:57:09.326Z,2.28
2022-10-08T12:59:42.935Z,2.50
2022-10-08T13:02:26.226Z,2.50
2022-10-08T13:04:58.588Z,2.65
2022-10-08T13:07:33.775Z,2.63
2022-10-08T13:10:18.093Z,2.67
2022-10-08T13:13:03.691Z,2.42
2022-10-08T13:15:37.080Z,2.50
2022-10-08T13:18:14.323Z,2.97
2022-10-08T13:20:57.227Z,2.85
2022-10-08T13:23:35.062Z,2.95
2022-10-08T13:26:45.363Z,3.15
2022-10-08T13:29:28.229Z,2.42
2022-10-08T13:32:05.427Z,2.00
2022-10-08T13:34:42.187Z,2.08
2022-10-08T13:37:23.660Z,2.28
2022-10-08T13:39:57.573Z,2.03
2022-10-08T13:42:33.091Z,2.30
2022-10-08T13:45:13.170Z,2.33
2022-10-08T13:47:47.126Z,2.13
2022-10-08T13:50:19.847Z,1.95
2022-10-08T13:52:57.170Z,2.30
2022-10-08T13:55:31.594Z,2.33
2022-10-08T13:58:05.812Z,2.30
2022-10-08T14:00:40.110Z,2.45
2022-10-08T14:03:14.061Z,2.55
2022-10-08T14:05:48.407Z,2.80
2022-10-08T14:08:25.455Z,2.50
2022-10-08T14:10:58.450Z,3.30
2022-10-08T14:13:30.437Z,3.10
2022-10-08T14:16:02.439Z,2.90
2022-10-08T14:18:35.834Z,3.10
2022-10-08T14:21:07.805Z,2.92
2022-10-08T14:23:39.864Z,4.05
2022-10-08T14:26:12.873Z,3.92
2022-10-08T14:28:44.907Z,4.03
2022-10-08T14:31:17.307Z,3.40
2022-10-08T14:33:50.647Z,2.75
2022-10-08T14:36:27.183Z,3.40
2022-10-08T14:38:59.148Z,2.92
2022-10-08T14:41:31.156Z,3.58
2022-10-08T14:44:03.139Z,3.75
2022-10-08T14:46:35.146Z,3.33
2022-10-08T14:49:08.504Z,3.97
2022-10-08T14:51:40.492Z,3.72
2022-10-08T14:54:12.511Z,4.82
2022-10-08T14:56:46.795Z,3.75
2022-10-08T14:59:19.399Z,3.75
2022-10-08T15:01:51.428Z,3.55
2022-10-08T15:04:24.791Z,3.55
2022-10-08T15:06:56.727Z,3.30
2022-10-08T15:09:28.779Z,3.47
2022-10-08T15:12:00.734Z,5.38
2022-10-08T15:14:37.195Z,4.30
2022-10-08T15:17:10.294Z,4.00
2022-10-08T15:19:43.594Z,3.40
2022-10-08T15:22:16.783Z,2.95
2022-10-08T15:24:48.697Z,4.90
2022-10-08T15:27:21.163Z,5.28
2022-10-08T15:29:53.158Z,6.85
2022-10-08T15:32:29.589Z,7.05
2022-10-08T15:35:03.895Z,4.85
2022-10-08T15:37:35.878Z,7.97
2022-10-08T15:40:08.843Z,8.77
2022-10-08T15:42:40.871Z,8.13
2022-10-08T15:45:12.802Z,7.75
2022-10-08T15:47:44.789Z,7.57
2022-10-08T15:50:18.105Z,7.88
2022-10-08T15:52:50.138Z,8.27
2022-10-08T15:55:22.265Z,6.20
2022-10-08T15:57:54.245Z,6.82
2022-10-08T16:00:26.201Z,8.20
2022-10-08T16:02:58.209Z,8.02
2022-10-08T16:05:31.580Z,10.70
2022-10-08T16:08:03.690Z,13.10
2022-10-08T16:10:36.055Z,14.10
2022-10-08T16:13:08.236Z,15.32
2022-10-08T16:15:40.137Z,15.82
2022-10-08T16:18:12.077Z,14.23
2022-10-08T16:20:46.480Z,12.52
2022-10-08T16:23:20.231Z,11.98
2022-10-08T16:25:52.166Z,11.30
2022-10-08T16:28:24.245Z,11.82
2022-10-08T16:30:57.035Z,12.85
2022-10-08T16:33:29.381Z,13.02
2022-10-08T16:36:07.528Z,10.50
2022-10-08T16:38:40.330Z,9.68
2022-10-08T16:41:14.383Z,11.77
2022-10-08T16:43:49.459Z,11.95
2022-10-08T16:46:23.333Z,9.80
2022-10-08T16:48:57.176Z,10.57
2022-10-08T16:51:32.466Z,9.25
2022-10-08T16:54:07.303Z,10.82
2022-10-08T16:56:41.575Z,10.48
2022-10-08T16:59:15.287Z,15.55
2022-10-08T17:01:49.241Z,13.75
2022-10-08T17:04:23.545Z,14.38
2022-10-08T17:06:56.940Z,13.23
2022-10-08T17:09:28.947Z,14.68
2022-10-08T17:12:01.230Z,16.58
2022-10-08T17:14:33.268Z,17.10
2022-10-08T17:17:05.276Z,15.93
2022-10-08T17:19:37.470Z,17.95
2022-10-08T17:22:13.082Z,13.68
2022-10-08T17:24:45.036Z,11.68
2022-10-08T17:27:17.034Z,11.82
2022-10-08T17:29:48.996Z,8.27
2022-10-08T17:32:20.957Z,11.75
2022-10-08T17:34:52.890Z,13.35
2022-10-08T17:37:26.190Z,9.70
2022-10-08T17:39:58.681Z,13.32
2022-10-08T17:42:30.674Z,14.27
2022-10-08T17:45:02.613Z,19.17
2022-10-08T17:47:34.632Z,23.63
2022-10-08T17:50:06.947Z,22.05
2022-10-08T17:52:40.270Z,24.08
2022-10-08T17:55:15.426Z,30.83
2022-10-08T17:57:48.957Z,37.60
2022-10-08T18:00:21.369Z,31.05
2022-10-08T18:02:53.623Z,27.50
2022-10-08T18:05:25.622Z,30.33
2022-10-08T18:07:58.911Z,26.88
2022-10-08T18:10:30.844Z,27.25
2022-10-08T18:13:02.814Z,42.10
2022-10-08T18:15:36.721Z,29.83
2022-10-08T18:18:08.815Z,33.70
2022-10-08T18:20:40.872Z,60.97
2022-10-08T18:23:14.310Z,57.20
2022-10-08T18:25:49.294Z,33.53
2022-10-08T18:28:23.603Z,18.20
2022-10-08T18:30:55.611Z,15.68
2022-10-08T18:33:30.936Z,20.17
2022-10-08T18:36:10.332Z,30.63
2022-10-08T18:38:45.818Z,21.30
2022-10-08T18:41:19.903Z,12.18
2022-10-08T18:43:52.022Z,11.20
2022-10-08T18:46:24.040Z,9.25
2022-10-08T18:48:56.276Z,6.95
2022-10-08T18:51:29.749Z,6.18
2022-10-08T18:54:03.154Z,5.22
2022-10-08T18:56:38.604Z,4.57
2022-10-08T18:59:12.701Z,4.75
2022-10-08T19:01:46.744Z,4.40
2022-10-08T19:04:20.927Z,5.03
2022-10-08T19:06:55.764Z,4.68
2022-10-08T19:09:29.283Z,4.10
2022-10-08T19:12:02.266Z,4.97
2022-10-08T19:14:34.568Z,4.80
2022-10-08T19:17:06.602Z,4.03
2022-10-08T19:19:38.508Z,5.00
2022-10-08T19:22:10.469Z,4.88
2022-10-08T19:24:44.010Z,4.30
2022-10-08T19:27:16.001Z,5.07
2022-10-08T19:29:47.904Z,4.60
2022-10-08T19:32:19.876Z,5.43
2022-10-08T19:34:51.819Z,5.57
2022-10-08T19:37:24.101Z,5.90
2022-10-08T19:39:57.365Z,5.95
2022-10-08T19:42:29.331Z,5.40
2022-10-08T19:45:01.248Z,5.63
2022-10-08T19:47:33.246Z,4.53
2022-10-08T19:50:06.068Z,4.75
2022-10-08T19:52:38.050Z,4.15
2022-10-08T19:55:11.472Z,5.22
2022-10-08T19:57:43.407Z,5.03
2022-10-08T20:00:15.910Z,5.60
2022-10-08T20:02:48.122Z,5.70
2022-10-08T20:05:20.233Z,5.18
2022-10-08T20:07:52.226Z,5.70
2022-10-08T20:10:26.981Z,5.20
2022-10-08T20:12:58.961Z,5.07
2022-10-08T20:15:30.942Z,5.32
2022-10-08T20:18:03.463Z,4.68
2022-10-08T20:20:35.406Z,5.05
2022-10-08T20:23:07.397Z,4.28
2022-10-08T20:25:42.455Z,4.53
2022-10-08T20:28:14.543Z,6.45
2022-10-08T20:30:47.079Z,6.22
2022-10-08T20:33:19.820Z,8.00
2022-10-08T20:35:51.725Z,9.15
2022-10-08T20:38:23.713Z,7.22
2022-10-08T20:40:57.004Z,6.57
2022-10-08T20:43:29.477Z,6.47
2022-10-08T20:46:02.443Z,7.68
2022-10-08T20:48:35.778Z,8.23
2022-10-08T20:51:10.083Z,8.43
2022-10-08T20:53:47.048Z,6.80
2022-10-08T20:56:20.882Z,7.13
2022-10-08T20:58:53.363Z,7.20
2022-10-08T21:01:27.570Z,6.03
2022-10-08T21:04:00.678Z,6.10
2022-10-08T21:06:36.842Z,5.28
2022-10-08T21:09:09.557Z,5.38
2022-10-08T21:11:45.856Z,5.60
2022-10-08T21:14:19.911Z,6.40
2022-10-08T21:16:53.476Z,5.85
2022-10-08T21:19:25.992Z,5.82
2022-10-08T21:21:57.959Z,5.10
2022-10-08T21:24:29.961Z,4.35
2022-10-08T21:27:03.253Z,5.40
2022-10-08T21:29:35.329Z,4.72
2022-10-08T21:32:07.267Z,4.60
2022-10-08T21:34:39.233Z,5.43
2022-10-08T21:37:13.808Z,4.85
2022-10-08T21:39:46.026Z,4.97
2022-10-08T21:42:19.311Z,4.82
2022-10-08T21:44:51.265Z,5.32
2022-10-08T21:47:23.264Z,4.43
2022-10-08T21:49:55.198Z,5.25
2022-10-08T21:52:27.092Z,5.07
2022-10-08T21:54:59.029Z,5.65
2022-10-08T21:57:32.379Z,4.53
2022-10-08T22:00:07.738Z,5.10
2022-10-08T22:02:44.924Z,5.10
2022-10-08T22:05:16.836Z,4.75
2022-10-08T22:07:48.762Z,5.10
2022-10-08T22:10:20.710Z,5.30
2022-10-08T22:12:54.570Z,6.13
2022-10-08T22:15:26.506Z,6.85
2022-10-08T22:17:58.433Z,7.10
2022-10-08T22:20:30.381Z,5.80
2022-10-08T22:23:02.318Z,5.38
2022-10-08T22:25:34.267Z,9.40
2022-10-08T22:28:08.400Z,8.40
2022-10-08T22:30:40.380Z,6.82
2022-10-08T22:33:12.397Z,6.65
2022-10-08T22:35:44.425Z,7.03
2022-10-08T22:38:16.389Z,6.20
2022-10-08T22:40:48.327Z,5.75
2022-10-08T22:43:21.669Z,5.95
2022-10-08T22:45:53.707Z,6.20
2022-10-08T22:48:25.632Z,7.40
2022-10-08T22:51:01.495Z,7.15
2022-10-08T22:53:33.956Z,5.63
2022-10-08T22:56:07.312Z,6.47
2022-10-08T22:58:40.615Z,5.72
2022-10-08T23:01:14.870Z,6.07
2022-10-08T23:03:47.152Z,5.47
2022-10-08T23:06:21.299Z,5.53
2022-10-08T23:08:55.678Z,6.25
2022-10-08T23:11:28.905Z,5.30
2022-10-08T23:14:02.522Z,5.78
2022-10-08T23:16:35.175Z,6.57
2022-10-08T23:19:12.068Z,6.32
2022-10-08T23:21:44.541Z,6.82
2022-10-08T23:24:16.560Z,7.28
2022-10-08T23:26:48.543Z,5.60
2022-10-08T23:29:21.889Z,5.60
2022-10-08T23:31:54.017Z,5.85
2022-10-08T23:34:26.150Z,5.20
2022-10-08T23:36:58.084Z,5.20
2022-10-08T23:39:30.688Z,5.78
2022-10-08T23:42:02.897Z,6.70
2022-10-08T23:44:36.280Z,8.43
2022-10-08T23:47:08.347Z,8.02
2022-10-08T23:49:40.298Z,8.88
2022-10-08T23:52:12.284Z,7.55
2022-10-08T23:54:44.212Z,10.15
2022-10-08T23:57:16.240Z,9.90
2022-10-08T23:59:49.746Z,11.13
